createdAt,value
2022-12-04T00:01:40.386Z,42.50
2022-12-04T00:04:23.190Z,45.20
2022-12-04T00:09:48.575Z,39.30
2022-12-04T00:12:31.336Z,42.80
2022-12-04T00:18:08.221Z,42.20
2022-12-04T00:20:51.618Z,40.90
2022-12-04T00:23:35.588Z,39.80
2022-12-04T00:26:21.470Z,41.20
2022-12-04T00:29:05.324Z,39.60
2022-12-04T00:31:48.648Z,41.70
2022-12-04T00:34:32.639Z,39.10
2022-12-04T00:37:15.497Z,41.60
2022-12-04T00:42:40.948Z,41.90
2022-12-04T00:45:23.804Z,40.80
2022-12-04T00:50:50.947Z,39.40
2022-12-04T00:53:36.690Z,41.20
2022-12-04T00:56:25.166Z,40.70
2022-12-04T00:59:08.294Z,41.80
2022-12-04T01:04:33.714Z,40.10
2022-12-04T01:07:17.541Z,42.20
2022-12-04T01:10:00.351Z,39.80
2022-12-04T01:15:25.793Z,37.00
2022-12-04T01:18:08.685Z,40.90
2022-12-04T01:26:17.597Z,39.20
2022-12-04T01:31:43.298Z,40.00
2022-12-04T01:34:26.483Z,38.90
2022-12-04T01:37:09.313Z,42.00
2022-12-04T01:42:35.123Z,40.80
2022-12-04T01:45:51.654Z,40.50
2022-12-04T01:48:38.629Z,38.80
2022-12-04T01:51:30.743Z,38.40
2022-12-04T01:54:22.684Z,39.00
2022-12-04T01:57:14.247Z,36.80
2022-12-04T02:00:04.837Z,39.50
2022-12-04T02:02:48.734Z,38.80
2022-12-04T02:05:31.734Z,38.60
2022-12-04T02:08:14.712Z,37.90
2022-12-04T02:11:16.062Z,38.80
2022-12-04T02:14:36.131Z,38.70
2022-12-04T02:17:28.416Z,42.60
2022-12-04T02:20:45.887Z,39.40
2022-12-04T02:23:53.942Z,38.90
2022-12-04T02:26:48.889Z,40.60
2022-12-04T02:29:51.259Z,38.90
2022-12-04T02:33:00.575Z,38.50
2022-12-04T02:36:00.205Z,40.20
2022-12-04T02:38:55.776Z,37.30
2022-12-04T02:41:45.337Z,40.30
2022-12-04T02:44:35.434Z,38.60
2022-12-04T02:47:22.568Z,39.70
2022-12-04T02:50:10.276Z,38.10
2022-12-04T02:53:03.329Z,35.60
2022-12-04T02:58:41.077Z,38.80
2022-12-04T03:01:35.081Z,38.70
2022-12-04T03:04:22.052Z,38.10
2022-12-04T03:07:15.052Z,38.50
2022-12-04T03:13:15.968Z,39.70
2022-12-04T03:16:06.095Z,38.30
2022-12-04T03:18:57.156Z,40.10
2022-12-04T03:21:46.779Z,38.10
2022-12-04T03:24:34.309Z,39.00
2022-12-04T03:28:01.676Z,39.00
2022-12-04T03:30:51.018Z,40.40
2022-12-04T03:33:43.420Z,37.70
2022-12-04T03:36:31.702Z,36.00
2022-12-04T03:39:35.794Z,36.50
2022-12-04T03:42:24.036Z,36.20
2022-12-04T03:45:16.888Z,33.50
2022-12-04T03:48:22.977Z,41.00
2022-12-04T03:51:15.597Z,36.30
2022-12-04T03:54:11.732Z,33.20
2022-12-04T03:57:10.692Z,36.00
2022-12-04T04:00:02.581Z,36.40
2022-12-04T04:02:57.829Z,33.90
2022-12-04T04:05:46.124Z,36.90
2022-12-04T04:08:35.175Z,37.00
2022-12-04T04:11:23.509Z,38.30
2022-12-04T04:14:40.196Z,37.20
2022-12-04T04:17:47.465Z,38.80
2022-12-04T04:21:03.460Z,36.60
2022-12-04T04:24:09.796Z,40.50
2022-12-04T04:26:59.255Z,42.10
2022-12-04T04:29:47.955Z,39.20
2022-12-04T04:32:41.254Z,38.80
2022-12-04T04:35:24.159Z,37.60
2022-12-04T04:38:31.919Z,36.70
2022-12-04T04:41:33.787Z,40.00
2022-12-04T04:44:41.261Z,40.70
2022-12-04T04:47:52.983Z,39.50
2022-12-04T04:50:37.640Z,41.50
2022-12-04T04:53:27.054Z,39.40
2022-12-04T04:56:10.427Z,43.80
2022-12-04T04:58:53.195Z,42.00
2022-12-04T05:01:38.413Z,41.30
2022-12-04T05:04:21.266Z,38.10
2022-12-04T05:09:48.849Z,36.20
2022-12-04T05:15:14.480Z,36.80
2022-12-04T05:17:57.300Z,37.30
2022-12-04T05:26:06.601Z,37.70
2022-12-04T05:31:32.219Z,36.90
2022-12-04T05:34:15.011Z,38.40
2022-12-04T05:39:40.544Z,36.80
2022-12-04T05:42:23.323Z,38.80
2022-12-04T05:45:06.684Z,35.50
2022-12-04T05:47:50.062Z,37.00
2022-12-04T05:50:32.861Z,35.60
2022-12-04T05:56:01.203Z,38.10
2022-12-04T05:58:44.017Z,37.40
2022-12-04T06:01:26.880Z,35.60
2022-12-04T06:06:54.589Z,36.20
2022-12-04T06:09:38.258Z,36.20
2022-12-04T06:12:21.040Z,36.80
2022-12-04T06:17:47.003Z,34.70
2022-12-04T06:23:12.546Z,36.00
2022-12-04T06:28:39.498Z,32.40
2022-12-04T06:31:22.871Z,35.10
2022-12-04T06:34:06.697Z,34.60
2022-12-04T06:36:49.492Z,37.80
2022-12-04T06:42:15.067Z,34.40
2022-12-04T06:47:40.716Z,34.20
2022-12-04T06:53:08.499Z,32.60
2022-12-04T06:55:53.594Z,33.50
2022-12-04T06:58:37.037Z,33.80
2022-12-04T07:01:25.661Z,32.40
2022-12-04T07:04:08.656Z,33.70
2022-12-04T07:06:51.620Z,32.20
2022-12-04T07:09:34.357Z,32.90
2022-12-04T07:12:17.285Z,31.40
2022-12-04T07:17:42.715Z,30.60
2022-12-04T07:20:27.987Z,30.70
2022-12-04T07:23:10.888Z,32.00
2022-12-04T07:25:53.702Z,32.40
2022-12-04T07:34:03.471Z,26.60
2022-12-04T07:39:29.500Z,34.30
2022-12-04T07:42:12.331Z,28.40
2022-12-04T07:47:39.827Z,31.00
2022-12-04T07:53:05.368Z,28.00
2022-12-04T07:55:52.369Z,29.60
2022-12-04T07:58:35.534Z,31.80
2022-12-04T08:01:21.885Z,30.10
2022-12-04T08:04:04.897Z,29.90
2022-12-04T08:06:48.852Z,30.60
2022-12-04T08:09:32.582Z,32.10
2022-12-04T08:12:15.768Z,30.40
2022-12-04T08:17:42.655Z,31.20
2022-12-04T08:23:08.295Z,28.20
2022-12-04T08:28:35.307Z,27.70
2022-12-04T08:31:21.093Z,29.20
2022-12-04T08:34:06.520Z,30.10
2022-12-04T08:36:49.332Z,32.70
2022-12-04T08:42:15.184Z,31.70
2022-12-04T08:47:40.682Z,30.50
2022-12-04T08:53:06.206Z,29.00
2022-12-04T08:55:49.028Z,29.70
2022-12-04T09:01:15.640Z,28.40
2022-12-04T09:03:59.179Z,31.00
2022-12-04T09:06:42.214Z,33.10
2022-12-04T09:12:07.680Z,32.20
2022-12-04T09:17:36.424Z,31.10
2022-12-04T09:20:19.312Z,30.70
2022-12-04T09:23:04.758Z,32.20
2022-12-04T09:25:48.753Z,33.90
2022-12-04T09:28:31.568Z,31.80
2022-12-04T09:31:14.765Z,33.30
2022-12-04T09:34:01.807Z,28.90
2022-12-04T09:36:44.559Z,30.00
2022-12-04T09:42:35.580Z,31.00
2022-12-04T09:45:22.298Z,29.60
2022-12-04T09:48:08.884Z,31.50
2022-12-04T09:50:53.284Z,30.40
2022-12-04T09:54:00.321Z,31.40
2022-12-04T09:56:48.251Z,30.10
2022-12-04T09:59:33.100Z,30.60
2022-12-04T10:02:16.015Z,31.80
2022-12-04T10:04:58.888Z,31.30
2022-12-04T10:10:40.352Z,29.80
2022-12-04T10:13:53.240Z,31.80
2022-12-04T10:17:01.135Z,32.50
2022-12-04T10:19:46.680Z,33.20
2022-12-04T10:23:00.673Z,33.40
2022-12-04T10:25:43.827Z,31.60
2022-12-04T10:28:39.375Z,31.80
2022-12-04T10:31:23.591Z,32.40
2022-12-04T10:34:16.568Z,31.10
2022-12-04T10:39:51.756Z,32.20
2022-12-04T10:42:45.890Z,33.50
2022-12-04T10:45:28.727Z,32.40
2022-12-04T10:51:03.849Z,32.20
2022-12-04T10:53:49.549Z,32.30
2022-12-04T10:56:32.408Z,33.00
2022-12-04T11:02:06.330Z,29.90
2022-12-04T11:04:58.295Z,33.50
2022-12-04T11:07:48.302Z,32.30
2022-12-04T11:10:43.320Z,33.40
2022-12-04T11:13:26.760Z,34.00
2022-12-04T11:16:37.950Z,32.90
2022-12-04T11:19:29.881Z,32.90
2022-12-04T11:22:15.945Z,33.30
2022-12-04T11:24:59.784Z,32.80
2022-12-04T11:27:50.801Z,36.70
2022-12-04T11:30:38.267Z,33.40
2022-12-04T11:33:30.342Z,34.90
2022-12-04T11:36:19.585Z,37.30
2022-12-04T11:39:11.523Z,34.70
2022-12-04T11:42:02.808Z,34.60
2022-12-04T11:44:56.692Z,33.80
2022-12-04T11:47:39.609Z,34.10
2022-12-04T11:50:37.053Z,35.70
2022-12-04T11:53:37.856Z,34.00
2022-12-04T11:56:29.998Z,34.10
2022-12-04T11:59:31.772Z,36.70
2022-12-04T12:02:15.712Z,34.70
2022-12-04T12:05:15.686Z,35.90
2022-12-04T12:08:21.065Z,34.20
2022-12-04T12:11:29.104Z,33.50
2022-12-04T12:14:30.509Z,35.40
2022-12-04T12:17:21.737Z,33.30
2022-12-04T12:20:31.496Z,34.80
2022-12-04T12:23:30.038Z,35.50
2022-12-04T12:26:15.517Z,35.40
2022-12-04T12:29:14.699Z,33.40
2022-12-04T12:32:04.889Z,36.60
2022-12-04T12:34:49.032Z,34.70
2022-12-04T12:37:46.439Z,36.30
2022-12-04T12:40:35.424Z,34.40
2022-12-04T12:43:21.376Z,33.30
2022-12-04T12:46:23.872Z,35.60
2022-12-04T12:49:17.419Z,35.90
2022-12-04T12:52:13.022Z,34.00
2022-12-04T12:55:02.821Z,33.20
2022-12-04T12:57:52.750Z,35.20
2022-12-04T13:00:45.865Z,34.80
2022-12-04T13:03:34.675Z,34.20
2022-12-04T13:06:22.061Z,36.90
2022-12-04T13:09:17.953Z,36.20
2022-12-04T13:12:08.993Z,38.80
2022-12-04T13:14:52.756Z,34.60
2022-12-04T13:17:39.492Z,35.70
2022-12-04T13:20:28.928Z,34.80
2022-12-04T13:23:45.024Z,36.10
2022-12-04T13:27:03.620Z,38.20
2022-12-04T13:29:58.792Z,38.10
2022-12-04T13:33:15.967Z,35.70
2022-12-04T13:36:16.807Z,34.50
2022-12-04T13:39:34.113Z,33.60
2022-12-04T13:42:26.628Z,33.40
2022-12-04T13:45:29.381Z,36.30
2022-12-04T13:48:13.033Z,35.10
2022-12-04T13:51:14.163Z,33.50
2022-12-04T13:54:21.515Z,36.60
2022-12-04T13:57:20.977Z,33.70
2022-12-04T14:00:27.786Z,35.60
2022-12-04T14:03:38.815Z,36.80
2022-12-04T14:06:31.888Z,36.60
2022-12-04T14:09:23.127Z,37.50
2022-12-04T14:12:09.420Z,37.30
2022-12-04T14:14:56.673Z,35.60
2022-12-04T14:17:40.360Z,39.00
2022-12-04T14:20:32.003Z,35.70
2022-12-04T14:23:22.735Z,36.90
2022-12-04T14:26:20.280Z,38.10
2022-12-04T14:29:25.524Z,36.00
2022-12-04T14:32:15.312Z,36.00
2022-12-04T14:34:58.985Z,34.60
2022-12-04T14:38:06.793Z,36.10
2022-12-04T14:40:52.368Z,36.70
2022-12-04T14:43:41.109Z,39.80
2022-12-04T14:46:46.461Z,38.10
2022-12-04T14:50:16.532Z,35.80
2022-12-04T14:53:12.257Z,37.50
2022-12-04T14:56:18.791Z,38.20
2022-12-04T14:59:11.397Z,37.60
2022-12-04T15:01:55.556Z,37.10
2022-12-04T15:04:45.914Z,38.10
2022-12-04T15:07:31.871Z,40.20
2022-12-04T15:10:46.952Z,39.40
2022-12-04T15:13:32.722Z,36.30
2022-12-04T15:16:23.433Z,40.20
2022-12-04T15:19:17.901Z,38.50
2022-12-04T15:22:00.784Z,40.50
2022-12-04T15:24:43.735Z,41.50
2022-12-04T15:27:32.326Z,40.90
2022-12-04T15:30:21.875Z,39.40
2022-12-04T15:33:10.419Z,41.10
2022-12-04T15:36:22.054Z,36.50
2022-12-04T15:39:05.588Z,36.80
2022-12-04T15:41:48.883Z,38.90
2022-12-04T15:44:34.619Z,41.20
2022-12-04T15:47:25.364Z,36.90
2022-12-04T15:50:17.145Z,37.50
2022-12-04T15:53:15.187Z,37.90
2022-12-04T15:56:07.008Z,37.90
2022-12-04T15:59:02.489Z,40.30
2022-12-04T16:01:45.593Z,38.70
2022-12-04T16:04:29.872Z,42.40
2022-12-04T16:07:24.553Z,39.10
2022-12-04T16:10:23.825Z,40.00
2022-12-04T16:13:06.745Z,40.30
2022-12-04T16:15:49.596Z,40.00
2022-12-04T16:18:32.960Z,38.00
2022-12-04T16:21:18.780Z,38.40
2022-12-04T16:24:03.317Z,39.90
2022-12-04T16:26:46.184Z,38.20
2022-12-04T16:29:30.689Z,39.20
2022-12-04T16:32:18.705Z,39.30
2022-12-04T16:35:01.740Z,38.30
2022-12-04T16:37:44.632Z,40.20
2022-12-04T16:40:27.463Z,38.60
2022-12-04T16:46:00.099Z,38.80
2022-12-04T16:48:43.443Z,39.40
2022-12-04T16:51:27.512Z,38.80
2022-12-04T16:54:12.975Z,39.40
2022-12-04T16:56:55.840Z,38.20
2022-12-04T16:59:39.428Z,39.30
2022-12-04T17:02:27.088Z,36.50
2022-12-04T17:05:29.487Z,38.70
2022-12-04T17:08:12.439Z,39.80
2022-12-04T17:10:55.952Z,34.90
2022-12-04T17:13:38.840Z,35.80
2022-12-04T17:19:05.105Z,34.10
2022-12-04T17:21:47.927Z,37.60
2022-12-04T17:24:30.928Z,36.60
2022-12-04T17:27:14.576Z,38.30
2022-12-04T17:30:00.035Z,43.00
2022-12-04T17:32:43.199Z,38.50
2022-12-04T17:38:11.853Z,40.20
2022-12-04T17:41:01.893Z,41.20
2022-12-04T17:43:44.754Z,40.20
2022-12-04T17:49:10.281Z,40.20
2022-12-04T17:54:37.707Z,37.10
2022-12-04T17:57:22.428Z,35.00
2022-12-04T18:00:06.205Z,36.10
2022-12-04T18:02:55.405Z,36.50
2022-12-04T18:05:38.395Z,36.10
2022-12-04T18:11:05.656Z,38.00
2022-12-04T18:13:59.817Z,39.20
2022-12-04T18:16:52.923Z,37.00
2022-12-04T18:19:36.196Z,40.20
2022-12-04T18:22:19.020Z,37.90
2022-12-04T18:27:45.344Z,34.70
2022-12-04T18:33:14.822Z,35.50
2022-12-04T18:36:00.404Z,34.80
2022-12-04T18:41:27.538Z,36.10
2022-12-04T18:44:10.892Z,36.80
2022-12-04T18:46:53.836Z,34.10
2022-12-04T18:49:36.863Z,36.20
2022-12-04T18:52:19.584Z,34.00
2022-12-04T18:57:45.100Z,38.20
2022-12-04T19:00:27.973Z,34.90
2022-12-04T19:05:53.992Z,37.60
2022-12-04T19:11:25.593Z,32.40
2022-12-04T19:14:20.697Z,34.30
2022-12-04T19:17:06.079Z,34.30
2022-12-04T19:19:49.591Z,36.80
2022-12-04T19:22:32.804Z,34.40
2022-12-04T19:25:16.811Z,39.10
2022-12-04T19:28:00.007Z,36.80
2022-12-04T19:30:42.907Z,35.50
2022-12-04T19:36:12.391Z,34.10
2022-12-04T19:38:57.314Z,34.30
2022-12-04T19:41:41.434Z,34.80
2022-12-04T19:44:47.831Z,37.10
2022-12-04T19:47:28.068Z,34.40
2022-12-04T19:50:11.217Z,39.10
2022-12-04T19:52:54.131Z,35.80
2022-12-04T19:58:19.604Z,32.60
2022-12-04T20:03:46.813Z,34.60
2022-12-04T20:06:34.950Z,36.10
2022-12-04T20:09:20.682Z,33.30
2022-12-04T20:12:03.727Z,33.00
2022-12-04T20:14:46.487Z,36.40
2022-12-04T20:20:12.164Z,32.00
2022-12-04T20:22:55.093Z,31.30
2022-12-04T20:25:38.893Z,34.00
2022-12-04T20:28:22.483Z,32.90
2022-12-04T20:31:26.407Z,34.10
2022-12-04T20:34:13.440Z,35.80
2022-12-04T20:36:56.476Z,32.80
2022-12-04T20:39:39.393Z,34.30
2022-12-04T20:42:22.309Z,33.50
2022-12-04T20:45:05.727Z,34.70
2022-12-04T20:47:50.080Z,34.60
2022-12-04T20:50:32.812Z,38.00
2022-12-04T20:55:58.452Z,33.30
2022-12-04T21:01:25.107Z,32.90
2022-12-04T21:04:08.387Z,32.80
2022-12-04T21:06:51.279Z,34.70
2022-12-04T21:12:41.446Z,33.40
2022-12-04T21:15:44.903Z,31.80
2022-12-04T21:18:27.723Z,31.80
2022-12-04T21:23:53.406Z,34.30
2022-12-04T21:26:36.544Z,33.80
2022-12-04T21:29:19.438Z,33.30
2022-12-04T21:32:04.635Z,33.80
2022-12-04T21:34:48.606Z,33.00
2022-12-04T21:37:31.466Z,33.90
2022-12-04T21:42:57.016Z,31.50
2022-12-04T21:48:22.834Z,31.60
2022-12-04T21:54:05.150Z,36.00
2022-12-04T21:56:48.411Z,31.70
2022-12-04T21:59:31.249Z,32.00
2022-12-04T22:04:58.551Z,33.50
2022-12-04T22:07:41.378Z,37.80
2022-12-04T22:10:24.651Z,32.60
2022-12-04T22:13:08.071Z,32.40
2022-12-04T22:15:50.919Z,33.50
2022-12-04T22:18:34.796Z,33.40
2022-12-04T22:21:17.633Z,36.00
2022-12-04T22:26:43.901Z,33.80
2022-12-04T22:32:29.759Z,35.00
2022-12-04T22:35:12.676Z,35.60
2022-12-04T22:37:55.408Z,34.10
2022-12-04T22:43:21.082Z,34.20
2022-12-04T22:48:47.015Z,31.30
2022-12-04T22:51:30.069Z,33.90
2022-12-04T22:54:14.305Z,33.40
2022-12-04T22:56:58.103Z,36.20
2022-12-04T22:59:41.375Z,34.50
2022-12-04T23:02:26.240Z,34.30
2022-12-04T23:05:09.162Z,34.80
2022-12-04T23:07:52.224Z,34.80
2022-12-04T23:10:38.834Z,32.70
2022-12-04T23:13:21.756Z,35.00
2022-12-04T23:18:53.228Z,32.90
2022-12-04T23:21:36.319Z,34.60
2022-12-04T23:24:19.398Z,31.60
2022-12-04T23:27:02.276Z,33.50
2022-12-04T23:29:53.281Z,31.50
2022-12-04T23:32:36.628Z,32.10
2022-12-04T23:38:02.116Z,30.50
2022-12-04T23:43:27.747Z,31.60
2022-12-04T23:48:55.618Z,31.40
2022-12-04T23:51:38.531Z,35.10
2022-12-04T23:54:21.352Z,34.60
2022-12-04T23:59:46.969Z,33.50
